Time;durP1;ratioP1;P1;durP2;ratioP2;P2;SDS_P1;SDS_P2;PMS_P1;PMS_P2;Temp;Humidity;BMP_temperature;BMP_pressure;BME280_temperature;BME280_humidity;BME280_pressure;Samples;Min_cycle;Max_cycle;Signal;HPM_P1;HPM_P2
2022/04/26 04:03:32;;;;;;;35.20;31.10;;;8.10;99.90;;;;;;5588425;23;20245;-76
2022/04/26 04:06:03;;;;;;;34.40;30.90;;;8.10;99.90;;;;;;4899641;29;20206;-78
2022/04/26 04:08:32;;;;;;;34.90;31.20;;;8.20;99.90;;;;;;4913872;29;20220;-77
2022/04/26 04:11:00;;;;;;;34.40;30.90;;;8.30;99.90;;;;;;4916925;29;20209;-77
2022/04/26 04:13:28;;;;;;;34.63;31.03;;;8.20;99.90;;;;;;4891552;29;20221;-78
2022/04/26 04:15:57;;;;;;;35.97;32.17;;;8.10;99.90;;;;;;4915339;29;20213;-78
2022/04/26 04:21:12;;;;;;;36.63;32.73;;;8.20;99.90;;;;;;4907669;29;20225;-78
2022/04/26 04:23:42;;;;;;;35.53;31.60;;;8.20;99.90;;;;;;4901051;29;20230;-77
2022/04/26 04:26:10;;;;;;;33.77;30.23;;;8.20;99.90;;;;;;4899626;29;20660;-79
2022/04/26 04:28:39;;;;;;;33.43;29.97;;;8.20;99.90;;;;;;4887393;29;20262;-78
2022/04/26 04:31:08;;;;;;;34.73;30.97;;;8.20;99.90;;;;;;4885308;29;20301;-77
2022/04/26 04:33:37;;;;;;;32.53;29.13;;;8.20;99.90;;;;;;4887146;29;20268;-78
2022/04/26 04:36:05;;;;;;;32.77;29.30;;;8.10;99.90;;;;;;4888705;29;20325;-74
2022/04/26 04:38:34;;;;;;;30.23;27.30;;;8.10;99.90;;;;;;4887411;29;20260;-77
2022/04/26 04:41:04;;;;;;;29.77;26.77;;;8.00;99.90;;;;;;4886745;29;20630;-78
2022/04/26 04:43:37;;;;;;;31.73;28.53;;;8.00;99.90;;;;;;4885989;29;20293;-78
2022/04/26 04:46:05;;;;;;;33.93;29.83;;;8.00;99.90;;;;;;4885046;29;20584;-78
2022/04/26 04:48:34;;;;;;;30.67;27.57;;;8.00;99.90;;;;;;4885728;29;20225;-78
2022/04/26 04:51:02;;;;;;;31.43;28.20;;;8.00;99.90;;;;;;4905921;29;20244;-76
2022/04/26 04:53:38;;;;;;;30.80;27.70;;;8.00;99.90;;;;;;4905746;29;20217;-76
2022/04/26 04:56:12;;;;;;;31.37;28.17;;;8.00;99.90;;;;;;4905630;29;20242;-77
2022/04/26 04:58:40;;;;;;;30.93;27.80;;;8.00;99.90;;;;;;4888577;29;20218;-76
2022/04/26 05:01:09;;;;;;;31.27;27.97;;;8.00;99.90;;;;;;4899002;29;20209;-76
2022/04/26 05:03:37;;;;;;;32.50;29.20;;;8.00;99.90;;;;;;4901762;29;20224;-76
2022/04/26 05:06:05;;;;;;;31.33;28.17;;;8.00;99.90;;;;;;4882382;29;20715;-76
2022/04/26 05:08:33;;;;;;;31.87;28.57;;;8.10;99.90;;;;;;4883170;29;20660;-78
2022/04/26 05:11:03;;;;;;;33.00;29.60;;;8.10;99.90;;;;;;4882305;29;20286;-77
2022/04/26 05:13:31;;;;;;;33.33;29.93;;;8.10;99.90;;;;;;4881356;29;20261;-77
2022/04/26 05:15:59;;;;;;;33.93;30.33;;;8.10;99.90;;;;;;4881002;29;20740;-78
2022/04/26 05:18:28;;;;;;;33.77;30.43;;;8.10;99.90;;;;;;4881372;29;20309;-77
2022/04/26 05:20:56;;;;;;;33.67;30.23;;;8.20;99.90;;;;;;4882139;29;20609;-77
2022/04/26 05:26:11;;;;;;;36.50;32.83;;;8.20;99.90;;;;;;4875761;29;20302;-75
2022/04/26 05:28:39;;;;;;;38.37;34.30;;;8.20;99.90;;;;;;4879775;29;20206;-78
2022/04/26 05:31:08;;;;;;;35.87;31.97;;;8.30;99.90;;;;;;4879410;29;20668;-77
2022/04/26 05:33:36;;;;;;;35.50;31.90;;;8.20;99.90;;;;;;4880081;29;20326;-78
2022/04/26 05:36:05;;;;;;;34.60;31.10;;;8.30;99.90;;;;;;4880728;29;20261;-74
2022/04/26 05:38:36;;;;;;;35.10;31.67;;;8.30;99.90;;;;;;4881152;29;20210;-78
2022/04/26 05:41:04;;;;;;;35.80;32.10;;;8.30;99.90;;;;;;4880655;29;20320;-77
2022/04/26 05:43:37;;;;;;;35.87;32.07;;;8.30;99.90;;;;;;4898730;29;20244;-76
2022/04/26 05:46:05;;;;;;;36.37;32.60;;;8.40;99.90;;;;;;4899930;29;20616;-75
2022/04/26 05:48:33;;;;;;;35.87;32.17;;;8.40;99.90;;;;;;4885537;29;20736;-76
2022/04/26 05:51:04;;;;;;;35.23;31.17;;;8.40;99.90;;;;;;4885104;29;20224;-77
2022/04/26 05:53:32;;;;;;;34.23;30.80;;;8.40;99.90;;;;;;4883547;29;20245;-75
2022/04/26 05:56:00;;;;;;;35.13;31.47;;;8.50;99.90;;;;;;4888945;29;20230;-79
2022/04/26 05:58:28;;;;;;;34.20;30.80;;;8.50;99.90;;;;;;4880241;29;20207;-76
2022/04/26 06:00:58;;;;;;;35.13;31.53;;;8.50;99.90;;;;;;4896084;29;20674;-79
2022/04/26 06:03:26;;;;;;;32.97;29.77;;;8.50;99.90;;;;;;4887268;29;20252;-74
2022/04/26 06:05:55;;;;;;;30.43;27.43;;;8.90;99.90;;;;;;4882318;29;20237;-77
2022/04/26 06:08:23;;;;;;;29.23;26.43;;;9.00;99.90;;;;;;4880221;29;20285;-78
2022/04/26 06:10:51;;;;;;;28.53;25.80;;;9.20;99.90;;;;;;4879657;29;20226;-75
2022/04/26 06:13:19;;;;;;;27.90;25.30;;;9.40;99.90;;;;;;4879670;29;20246;-78
2022/04/26 06:15:47;;;;;;;27.07;24.57;;;9.50;99.90;;;;;;4879980;29;20244;-76
2022/04/26 06:18:17;;;;;;;26.73;24.20;;;9.60;99.90;;;;;;4887026;29;20245;-76
2022/04/26 06:20:45;;;;;;;27.27;24.67;;;9.70;99.90;;;;;;4883460;29;20297;-79
2022/04/26 06:23:13;;;;;;;26.97;24.47;;;9.90;99.90;;;;;;4879336;29;20214;-78
2022/04/26 06:25:40;;;;;;;28.17;25.47;;;9.80;99.90;;;;;;4881735;29;20256;-75
2022/04/26 06:28:09;;;;;;;29.53;26.73;;;9.80;99.90;;;;;;4879646;29;20308;-79
2022/04/26 06:30:38;;;;;;;30.63;27.57;;;9.60;99.90;;;;;;4878971;29;20213;-77
2022/04/26 06:33:06;;;;;;;31.17;28.17;;;9.60;99.90;;;;;;4879341;29;20579;-81
2022/04/26 06:35:41;;;;;;;31.43;28.30;;;9.50;99.90;;;;;;4879258;29;20238;-79
2022/04/26 06:38:09;;;;;;;32.63;29.37;;;9.50;99.90;;;;;;4878925;29;20750;-80
2022/04/26 06:40:37;;;;;;;33.40;30.07;;;9.60;99.90;;;;;;4878580;29;20210;-77
2022/04/26 06:43:06;;;;;;;32.53;29.40;;;9.60;99.90;;;;;;4878590;29;20704;-79
2022/04/26 06:45:34;;;;;;;32.13;28.93;;;9.60;99.90;;;;;;4896390;29;20293;-81
2022/04/26 06:48:02;;;;;;;30.97;27.87;;;9.70;99.90;;;;;;4897361;29;20244;-79
2022/04/26 06:50:35;;;;;;;33.03;29.83;;;9.60;99.90;;;;;;4896769;29;20588;-77
2022/04/26 06:53:05;;;;;;;32.80;29.40;;;9.50;99.90;;;;;;4899104;29;20304;-76
2022/04/26 06:55:33;;;;;;;33.00;29.73;;;9.50;99.90;;;;;;4887302;29;20260;-80
2022/04/26 06:58:02;;;;;;;33.57;30.27;;;9.50;99.90;;;;;;4878639;29;20215;-76
2022/04/26 07:00:30;;;;;;;34.20;30.90;;;9.60;99.90;;;;;;4878795;29;20218;-75
2022/04/26 07:02:58;;;;;;;33.67;30.27;;;9.60;99.90;;;;;;4879188;29;20297;-78
2022/04/26 07:05:26;;;;;;;34.50;31.10;;;9.60;99.90;;;;;;4878983;29;20698;-75
2022/04/26 07:07:54;;;;;;;37.00;32.43;;;9.60;99.90;;;;;;4879310;29;20797;-78
2022/04/26 07:10:24;;;;;;;35.80;32.07;;;9.70;99.90;;;;;;4878453;29;20313;-79
2022/04/26 07:12:53;;;;;;;33.43;30.13;;;9.80;99.90;;;;;;4881075;29;20305;-79
2022/04/26 07:15:22;;;;;;;32.73;29.53;;;9.90;99.90;;;;;;4879964;29;20238;-78
2022/04/26 07:17:50;;;;;;;31.83;28.53;;;10.10;99.90;;;;;;4879217;29;20226;-76
2022/04/26 07:20:18;;;;;;;31.23;28.03;;;10.20;99.90;;;;;;4878516;29;20300;-79
2022/04/26 07:22:46;;;;;;;30.73;27.73;;;10.40;99.90;;;;;;4878946;29;20677;-76
2022/04/26 07:25:15;;;;;;;30.50;27.50;;;10.50;99.90;;;;;;4878930;29;20301;-77
2022/04/26 07:27:44;;;;;;;29.83;26.73;;;10.70;99.90;;;;;;4878472;29;20308;-78
2022/04/26 07:30:13;;;;;;;27.27;24.67;;;11.00;99.90;;;;;;4878323;29;20237;-77
2022/04/26 07:35:27;;;;;;;24.30;22.00;;;11.50;99.90;;;;;;4886803;29;20306;-76
2022/04/26 07:38:04;;;;;;;24.63;22.33;;;11.60;99.90;;;;;;4886782;29;20613;-77
2022/04/26 07:40:32;;;;;;;23.10;20.93;;;11.90;99.90;;;;;;4882700;29;20293;-77
2022/04/26 07:43:05;;;;;;;22.87;20.67;;;12.40;99.90;;;;;;4883124;29;20285;-78
2022/04/26 07:45:38;;;;;;;19.90;18.10;;;13.00;99.90;;;;;;4882978;29;20217;-75
2022/04/26 07:48:08;;;;;;;21.73;19.47;;;13.60;99.90;;;;;;4891344;29;20218;-76
2022/04/26 07:50:37;;;;;;;19.93;18.13;;;14.10;99.90;;;;;;4884113;29;20583;-73
2022/04/26 07:53:05;;;;;;;17.37;15.87;;;13.90;99.90;;;;;;4883055;29;20210;-78
2022/04/26 07:55:34;;;;;;;17.57;15.97;;;14.10;99.90;;;;;;4882375;29;20557;-76
2022/04/26 07:58:04;;;;;;;16.73;15.20;;;14.20;99.90;;;;;;4882735;29;20335;-74
2022/04/26 08:00:32;;;;;;;15.13;13.70;;;14.10;99.90;;;;;;4882254;29;20309;-74
2022/04/26 08:03:02;;;;;;;15.80;14.40;;;14.60;99.90;;;;;;4881979;29;20233;-75
2022/04/26 08:05:32;;;;;;;12.13;11.03;;;14.80;99.90;;;;;;4882441;29;20206;-74
2022/04/26 08:07:59;;;;;;;10.27;9.27;;;14.50;99.90;;;;;;4881660;29;20220;-79
2022/04/26 08:10:28;;;;;;;10.43;9.43;;;14.00;99.90;;;;;;4882072;29;20222;-75
2022/04/26 08:12:56;;;;;;;9.63;8.67;;;14.00;99.90;;;;;;4884537;29;20218;-78
2022/04/26 08:15:25;;;;;;;9.93;9.03;;;14.10;99.90;;;;;;4885496;29;20233;-77
2022/04/26 08:17:53;;;;;;;9.63;8.67;;;15.30;99.90;;;;;;4884177;29;20270;-76
2022/04/26 08:20:22;;;;;;;10.50;9.50;;;16.00;99.90;;;;;;4884584;29;20213;-77
2022/04/26 08:22:51;;;;;;;10.67;9.67;;;15.70;99.90;;;;;;4884628;29;20705;-73
2022/04/26 08:28:05;;;;;;;9.90;8.97;;;15.30;99.90;;;;;;4884956;29;20290;-74
2022/04/26 08:30:35;;;;;;;9.77;8.87;;;15.80;99.90;;;;;;4882166;29;20210;-73
2022/04/26 08:33:03;;;;;;;10.07;9.17;;;16.90;99.90;;;;;;4876904;29;20210;-72
2022/04/26 08:35:32;;;;;;;9.87;8.97;;;16.90;99.90;;;;;;4864742;29;20662;-75
2022/04/26 08:38:20;;;;;;;7.60;6.90;;;16.80;99.90;;;;;;4874800;29;20214;-75
2022/04/26 08:40:48;;;;;;;7.80;7.10;;;16.50;99.90;;;;;;4884178;29;20296;-75
2022/04/26 08:43:16;;;;;;;7.13;6.43;;;16.10;99.90;;;;;;4883210;29;20219;-75
2022/04/26 08:45:47;;;;;;;7.23;6.57;;;15.60;99.90;;;;;;4882552;29;20297;-76
2022/04/26 08:51:03;;;;;;;6.90;6.20;;;15.00;99.90;;;;;;4869242;29;20282;-78
2022/04/26 08:53:33;;;;;;;6.20;5.60;;;14.80;99.90;;;;;;4863500;29;20219;-76
2022/04/26 08:56:07;;;;;;;7.60;6.80;;;14.60;99.90;;;;;;4882016;29;20537;-76
2022/04/26 08:58:35;;;;;;;9.73;8.27;;;14.40;99.90;;;;;;4881948;29;20202;-76
2022/04/26 09:01:08;;;;;;;9.30;8.40;;;14.40;99.90;;;;;;4881742;29;20270;-78
2022/04/26 09:03:38;;;;;;;10.10;9.10;;;14.20;99.90;;;;;;4882113;29;20283;-76
2022/04/26 09:06:08;;;;;;;9.90;8.97;;;13.90;99.90;;;;;;4882081;29;20210;-76
2022/04/26 09:08:37;;;;;;;10.57;9.57;;;13.90;99.90;;;;;;4881750;29;20221;-74
2022/04/26 09:11:19;;;;;;;10.40;9.40;;;13.80;99.90;;;;;;4890961;29;20222;-74
2022/04/26 09:13:48;;;;;;;10.80;9.80;;;13.80;99.90;;;;;;4895092;29;20209;-75
2022/04/26 09:16:20;;;;;;;10.43;9.43;;;13.50;99.90;;;;;;4891758;29;20242;-74
2022/04/26 09:18:56;;;;;;;10.03;9.03;;;13.30;99.90;;;;;;4891111;29;20610;-75
2022/04/26 09:21:27;;;;;;;8.63;7.30;;;13.00;99.90;;;;;;4888908;29;20202;-76
2022/04/26 09:24:00;;;;;;;7.97;7.17;;;13.10;99.90;;;;;;4882354;29;20882;-75
2022/04/26 09:26:35;;;;;;;8.77;6.83;;;13.10;99.90;;;;;;4881464;29;20269;-74
2022/04/26 09:29:05;;;;;;;7.80;7.00;;;13.10;99.90;;;;;;4881653;29;20202;-73
2022/04/26 09:31:37;;;;;;;15.97;13.50;;;13.00;99.90;;;;;;4890149;29;20772;-77
2022/04/26 09:34:12;;;;;;;7.83;7.03;;;13.00;99.90;;;;;;4882571;29;20224;-76
2022/04/26 09:36:45;;;;;;;8.50;7.63;;;12.90;99.90;;;;;;4883220;29;20266;-75
2022/04/26 09:39:18;;;;;;;8.70;7.80;;;12.90;99.90;;;;;;4882731;29;20245;-76
2022/04/26 09:42:07;;;;;;;9.40;7.90;;;12.80;99.90;;;;;;4886475;29;20218;-76
2022/04/26 09:44:38;;;;;;;9.03;7.80;;;12.80;99.90;;;;;;4888903;29;20215;-76
2022/04/26 09:47:08;;;;;;;8.07;7.07;;;12.50;99.90;;;;;;4888251;29;20306;-74
2022/04/26 09:49:38;;;;;;;9.23;7.90;;;12.50;99.90;;;;;;4885287;29;20270;-75
2022/04/26 09:52:08;;;;;;;8.90;8.00;;;12.40;99.90;;;;;;4884647;29;20249;-76
2022/04/26 09:54:37;;;;;;;9.40;8.53;;;12.40;99.90;;;;;;4887514;29;20235;-74
2022/04/26 09:57:07;;;;;;;8.37;7.57;;;12.30;99.90;;;;;;4889073;29;20261;-75
2022/04/26 09:59:56;;;;;;;8.40;7.60;;;12.40;99.90;;;;;;4889420;29;20293;-74
2022/04/26 10:02:31;;;;;;;7.90;7.10;;;12.50;99.90;;;;;;4886044;29;20214;-75
2022/04/26 10:05:04;;;;;;;8.33;6.87;;;12.50;99.90;;;;;;4887309;29;20226;-74
2022/04/26 10:07:37;;;;;;;7.67;6.97;;;12.40;99.90;;;;;;4887833;29;20198;-74
2022/04/26 10:10:06;;;;;;;7.87;7.17;;;12.40;99.90;;;;;;4885603;29;20206;-77
2022/04/26 10:12:35;;;;;;;7.80;7.00;;;12.40;99.90;;;;;;4887244;29;20293;-76
2022/04/26 10:15:05;;;;;;;8.00;7.10;;;12.50;99.90;;;;;;4883560;29;20734;-74
2022/04/26 10:17:35;;;;;;;7.70;7.00;;;12.60;99.90;;;;;;4888335;29;20242;-75
2022/04/26 10:20:04;;;;;;;7.80;7.10;;;12.50;99.90;;;;;;4889001;29;20250;-75
2022/04/26 10:23:00;;;;;;;7.73;6.93;;;12.50;99.90;;;;;;4887374;29;20207;-76
2022/04/26 10:25:30;;;;;;;8.00;7.07;;;12.50;99.90;;;;;;4856024;29;20274;-75
2022/04/26 10:28:26;;;;;;;6.63;5.83;;;12.50;99.90;;;;;;4886299;29;20215;-76
2022/04/26 10:30:55;;;;;;;7.43;5.93;;;12.40;99.90;;;;;;4888578;29;20277;-73
2022/04/26 10:33:40;;;;;;;5.67;4.93;;;12.20;99.90;;;;;;4887667;29;20530;-77
2022/04/26 10:36:34;;;;;;;5.67;5.07;;;12.00;99.90;;;;;;4888081;29;20263;-77
2022/04/26 10:39:22;;;;;;;6.27;5.67;;;11.90;99.90;;;;;;4887027;29;20255;-77
2022/04/26 10:41:50;;;;;;;6.73;6.13;;;11.80;99.90;;;;;;4884247;29;20214;-76
2022/04/26 10:44:30;;;;;;;8.17;6.77;;;11.80;99.90;;;;;;4886042;29;20652;-74
2022/04/26 10:47:24;;;;;;;6.47;5.87;;;11.60;99.90;;;;;;4885035;29;20210;-75
2022/04/26 10:49:54;;;;;;;6.80;6.10;;;11.60;99.90;;;;;;4876476;29;20218;-74
2022/04/26 10:52:43;;;;;;;7.53;6.20;;;11.50;99.90;;;;;;4883404;29;20206;-75
2022/04/26 10:55:18;;;;;;;7.00;6.30;;;11.40;99.90;;;;;;4899564;29;20298;-75
2022/04/26 10:57:50;;;;;;;7.67;6.87;;;11.40;99.90;;;;;;4898751;29;20315;-75
2022/04/26 11:00:21;;;;;;;7.30;6.50;;;11.30;99.90;;;;;;4898013;29;20222;-74
2022/04/26 11:02:50;;;;;;;7.83;6.60;;;11.10;99.90;;;;;;4897920;29;20221;-75
2022/04/26 11:05:25;;;;;;;7.40;6.67;;;11.00;99.90;;;;;;4898811;29;20238;-75
2022/04/26 11:07:55;;;;;;;8.03;7.23;;;10.90;99.90;;;;;;4898456;29;20735;-73
2022/04/26 11:10:25;;;;;;;8.57;7.77;;;10.90;99.90;;;;;;4898953;29;20213;-75
2022/04/26 11:12:55;;;;;;;9.20;7.67;;;10.90;99.90;;;;;;4899236;29;20304;-75
2022/04/26 11:15:24;;;;;;;8.87;7.97;;;10.90;99.90;;;;;;4905804;29;20189;-76
2022/04/26 11:17:54;;;;;;;9.10;8.07;;;10.80;99.90;;;;;;4890848;29;20261;-74
2022/04/26 11:20:26;;;;;;;9.27;7.63;;;10.80;99.90;;;;;;4872246;29;20535;-75
2022/04/26 11:22:56;;;;;;;10.57;9.47;;;10.80;99.90;;;;;;4882749;29;20218;-75
2022/04/26 11:28:14;;;;;;;11.20;8.20;;;10.70;99.90;;;;;;4884928;29;20222;-75
2022/04/26 11:30:45;;;;;;;11.07;9.50;;;10.60;99.90;;;;;;4881606;29;20582;-74
2022/04/26 11:33:15;;;;;;;8.20;7.40;;;10.70;99.90;;;;;;4882352;29;20261;-74
2022/04/26 11:35:45;;;;;;;8.17;6.97;;;10.80;99.90;;;;;;4881581;29;20305;-75
2022/04/26 11:38:14;;;;;;;8.27;6.30;;;10.80;99.90;;;;;;4881296;29;20277;-75
2022/04/26 11:40:47;;;;;;;9.87;6.70;;;11.00;99.90;;;;;;4880776;29;20217;-75
2022/04/26 11:43:18;;;;;;;6.40;5.73;;;11.20;99.90;;;;;;4883419;29;20221;-73
2022/04/26 11:45:48;;;;;;;6.20;5.30;;;11.30;99.90;;;;;;4891461;29;20191;-76
2022/04/26 11:48:17;;;;;;;6.00;5.00;;;11.30;99.90;;;;;;4881709;29;20215;-74
2022/04/26 11:50:49;;;;;;;6.00;5.40;;;11.30;99.90;;;;;;4885187;29;20304;-75
2022/04/26 11:53:19;;;;;;;5.87;5.23;;;11.50;99.90;;;;;;4893688;29;20237;-75
2022/04/26 11:55:54;;;;;;;8.27;5.43;;;11.60;99.90;;;;;;4884305;29;20214;-77
2022/04/26 11:58:23;;;;;;;5.27;4.77;;;11.60;99.90;;;;;;4876276;29;20233;-74
2022/04/26 12:00:54;;;;;;;5.20;4.70;;;11.60;99.90;;;;;;4881855;29;20278;-74
2022/04/26 12:03:26;;;;;;;6.47;5.13;;;11.50;99.90;;;;;;4880717;29;20240;-78
2022/04/26 12:05:57;;;;;;;5.43;4.77;;;11.40;99.90;;;;;;4872998;29;20226;-80
2022/04/26 12:08:27;;;;;;;1.47;1.20;;;11.20;99.90;;;;;;4884631;29;20281;-80
2022/04/26 12:11:12;;;;;;;2.80;1.40;;;10.60;99.90;;;;;;4885473;29;20210;-80
2022/04/26 12:13:40;;;;;;;1.63;1.50;;;9.90;99.90;;;;;;4881515;29;20673;-81
2022/04/26 12:16:19;;;;;;;5.93;1.90;;;9.50;99.90;;;;;;4881004;29;20297;-79
2022/04/26 12:18:49;;;;;;;2.77;2.00;;;9.30;99.90;;;;;;4877953;29;20225;-79
2022/04/26 12:21:19;;;;;;;3.17;2.20;;;9.00;99.90;;;;;;4878303;29;20214;-78
2022/04/26 12:23:49;;;;;;;5.90;2.50;;;8.90;99.90;;;;;;4877526;29;20753;-77
2022/04/26 12:26:17;;;;;;;3.20;2.30;;;8.80;99.90;;;;;;4880217;29;20293;-74
2022/04/26 12:28:47;;;;;;;3.40;2.37;;;8.80;99.90;;;;;;4882674;29;20242;-75
2022/04/26 12:31:25;;;;;;;3.40;2.30;;;8.70;99.90;;;;;;4884049;29;20206;-77
2022/04/26 12:36:52;;;;;;;3.30;2.80;;;8.70;99.90;;;;;;4881957;29;20684;-75
2022/04/26 12:39:22;;;;;;;4.40;3.27;;;8.80;99.90;;;;;;4881944;29;20214;-77
2022/04/26 12:41:53;;;;;;;3.97;3.50;;;8.80;99.90;;;;;;4882006;29;20203;-79
2022/04/26 12:44:22;;;;;;;4.00;3.33;;;8.80;99.90;;;;;;4881656;29;20216;-77
2022/04/26 12:50:28;;;;;;;4.73;3.90;;;8.80;99.90;;;;;;4882603;29;20252;-75
2022/04/26 12:52:50;;;;;;;10.20;4.53;;;8.80;99.90;;;;;;4870868;29;20219;-75
2022/04/26 12:55:26;;;;;;;4.83;4.37;;;8.80;99.90;;;;;;4882517;29;20217;-74
2022/04/26 12:57:56;;;;;;;5.33;4.83;;;8.80;99.90;;;;;;4888396;29;20258;-77
2022/04/26 13:00:26;;;;;;;5.93;5.10;;;8.70;99.90;;;;;;4871494;29;20740;-77
2022/04/26 13:02:56;;;;;;;5.17;4.67;;;8.80;99.90;;;;;;4881798;29;20305;-79
2022/04/26 13:05:37;;;;;;;6.47;5.10;;;8.80;99.90;;;;;;4881807;29;20228;-75
2022/04/26 13:08:07;;;;;;;5.47;4.87;;;8.80;99.90;;;;;;4882037;29;20198;-78
2022/04/26 13:10:35;;;;;;;6.60;5.20;;;8.80;99.90;;;;;;4882264;29;20218;-76
2022/04/26 13:13:04;;;;;;;5.83;5.23;;;8.60;99.90;;;;;;4882470;29;20218;-78
2022/04/26 13:15:32;;;;;;;5.67;4.90;;;8.50;99.90;;;;;;4885666;29;20293;-78
2022/04/26 13:18:00;;;;;;;5.20;4.70;;;8.40;99.90;;;;;;4882161;29;20234;-78
2022/04/26 13:20:28;;;;;;;5.33;4.70;;;8.50;99.90;;;;;;4881158;29;20715;-79
2022/04/26 13:22:57;;;;;;;6.20;4.93;;;8.50;99.90;;;;;;4883345;29;20250;-77
2022/04/26 13:25:27;;;;;;;5.60;5.00;;;8.50;99.90;;;;;;4891188;29;20210;-77
2022/04/26 13:27:55;;;;;;;6.03;4.07;;;8.50;99.90;;;;;;4864554;29;20246;-77
2022/04/26 13:30:24;;;;;;;5.03;3.93;;;8.50;99.90;;;;;;4876873;29;20253;-76
2022/04/26 13:32:54;;;;;;;6.27;4.03;;;8.40;99.90;;;;;;4883393;29;20241;-72
2022/04/26 13:35:25;;;;;;;5.93;4.20;;;8.40;99.90;;;;;;4881761;29;20262;-73
2022/04/26 13:37:54;;;;;;;4.63;3.80;;;8.40;99.90;;;;;;4880461;29;20234;-73
2022/04/26 13:40:23;;;;;;;5.43;4.10;;;8.30;99.90;;;;;;4882678;29;20217;-73
2022/04/26 13:42:59;;;;;;;4.60;4.10;;;8.40;99.90;;;;;;4882986;29;20232;-75
2022/04/26 13:45:27;;;;;;;8.50;5.37;;;8.40;99.90;;;;;;4881571;29;20270;-73
2022/04/26 13:47:55;;;;;;;4.67;3.60;;;8.40;99.90;;;;;;4885434;29;20238;-77
2022/04/26 13:50:24;;;;;;;5.37;2.93;;;8.50;99.90;;;;;;4884369;29;20213;-78
2022/04/26 13:52:52;;;;;;;4.63;2.97;;;8.40;99.90;;;;;;4884371;29;20270;-74
2022/04/26 13:55:20;;;;;;;3.07;2.77;;;8.50;99.90;;;;;;4883793;29;20214;-75
2022/04/26 13:57:49;;;;;;;3.47;2.73;;;8.50;99.90;;;;;;4901199;29;20629;-73
2022/04/26 14:00:43;;;;;;;5.07;2.50;;;8.50;99.90;;;;;;4883390;29;20345;-80
2022/04/26 14:03:13;;;;;;;3.83;2.70;;;8.60;99.90;;;;;;4886340;29;20332;-76
2022/04/26 14:05:42;;;;;;;4.97;2.50;;;8.80;99.90;;;;;;4889983;29;20237;-78
2022/04/26 14:08:12;;;;;;;2.77;2.30;;;8.80;99.90;;;;;;4889320;29;20214;-73
2022/04/26 14:10:41;;;;;;;2.77;2.30;;;8.80;99.90;;;;;;4888073;29;20543;-76
2022/04/26 14:13:09;;;;;;;3.30;2.60;;;9.00;99.90;;;;;;4884235;29;20697;-80
2022/04/26 14:23:56;;;;;;;4.20;3.10;;;9.20;99.90;;;;;;4884180;29;20665;-78
2022/04/26 14:26:25;;;;;;;6.40;4.60;;;9.30;99.90;;;;;;4881268;29;20217;-74
2022/04/26 14:28:53;;;;;;;4.37;3.27;;;9.40;99.90;;;;;;4884493;29;20278;-78
2022/04/26 14:31:21;;;;;;;5.03;2.63;;;9.40;99.90;;;;;;4884571;29;20250;-75
2022/04/26 14:33:51;;;;;;;3.70;2.90;;;9.40;99.90;;;;;;4885020;29;20249;-80
2022/04/26 14:36:19;;;;;;;3.43;2.93;;;9.30;99.90;;;;;;4888507;29;20213;-74
2022/04/26 14:39:08;;;;;;;3.47;2.70;;;9.30;99.90;;;;;;4890360;29;20241;-76
2022/04/26 14:41:36;;;;;;;5.47;3.37;;;9.40;99.90;;;;;;4890414;29;20206;-78
2022/04/26 14:44:06;;;;;;;2.43;2.23;;;9.30;99.90;;;;;;4884423;29;20213;-75
2022/04/26 14:46:35;;;;;;;6.80;2.77;;;9.20;99.90;;;;;;4894560;29;20221;-73
2022/04/26 14:49:06;;;;;;;3.20;2.53;;;9.20;99.90;;;;;;4901795;29;20220;-77
2022/04/26 14:51:34;;;;;;;3.90;3.10;;;9.20;99.90;;;;;;4897203;29;20285;-76
2022/04/26 14:54:02;;;;;;;4.53;3.00;;;9.20;99.90;;;;;;4882430;29;20550;-77
2022/04/26 14:56:30;;;;;;;5.50;3.00;;;9.30;99.90;;;;;;4882238;29;20262;-76
2022/04/26 14:59:15;;;;;;;4.57;3.63;;;9.30;99.90;;;;;;4884257;29;20234;-78
2022/04/26 15:01:46;;;;;;;4.13;2.97;;;9.20;99.90;;;;;;4881961;29;20219;-77
2022/04/26 15:04:37;;;;;;;4.93;2.70;;;9.10;99.90;;;;;;4881156;29;20214;-74
2022/04/26 15:07:05;;;;;;;3.70;3.13;;;9.00;99.90;;;;;;4882408;29;20361;-75
2022/04/26 15:09:44;;;;;;;4.23;3.20;;;8.90;99.90;;;;;;4881629;29;20238;-75
2022/04/26 15:17:48;;;;;;;7.87;4.00;;;8.80;99.90;;;;;;4879572;29;20624;-80
2022/04/26 15:20:19;;;;;;;3.57;3.27;;;8.80;99.90;;;;;;4879161;29;20578;-80
2022/04/26 15:22:48;;;;;;;3.97;3.30;;;8.80;99.90;;;;;;4878208;29;20339;-79
2022/04/26 15:25:16;;;;;;;3.93;3.37;;;8.70;99.90;;;;;;4878650;29;20239;-80
2022/04/26 15:27:44;;;;;;;4.67;3.70;;;8.70;99.90;;;;;;4878133;29;20249;-80
2022/04/26 15:30:13;;;;;;;4.77;3.60;;;8.60;99.90;;;;;;4877614;29;20207;-73
2022/04/26 15:32:41;;;;;;;4.03;3.23;;;8.70;99.90;;;;;;4878405;29;20301;-73
2022/04/26 15:35:10;;;;;;;4.67;3.07;;;8.70;99.90;;;;;;4878194;29;20253;-76
2022/04/26 15:37:39;;;;;;;4.27;3.40;;;8.70;99.90;;;;;;4886777;29;20218;-77
2022/04/26 15:40:08;;;;;;;3.93;3.37;;;8.70;99.90;;;;;;4896887;29;20233;-75
2022/04/26 15:42:37;;;;;;;7.33;4.20;;;8.70;99.90;;;;;;4897127;29;20269;-79
2022/04/26 15:45:06;;;;;;;5.47;3.90;;;8.70;99.90;;;;;;4897542;29;20273;-79
2022/04/26 15:47:35;;;;;;;4.63;3.70;;;8.70;99.90;;;;;;4897128;29;20622;-78
2022/04/26 15:50:05;;;;;;;4.10;3.70;;;8.70;99.90;;;;;;4897228;29;20209;-75
2022/04/26 15:52:34;;;;;;;4.67;3.83;;;8.70;99.90;;;;;;4896924;29;20246;-77
2022/04/26 15:55:04;;;;;;;4.73;3.87;;;8.70;99.90;;;;;;4897140;29;20249;-76
2022/04/26 15:57:34;;;;;;;4.20;3.80;;;8.60;99.90;;;;;;4896940;29;20221;-75
2022/04/26 16:00:05;;;;;;;5.67;3.67;;;8.70;99.90;;;;;;4890694;29;21793;-76
2022/04/26 16:02:33;;;;;;;6.57;4.13;;;8.80;99.90;;;;;;4881052;29;20556;-80
2022/04/26 16:05:02;;;;;;;4.50;3.83;;;8.80;99.90;;;;;;4881176;29;20241;-77
2022/04/26 16:07:34;;;;;;;6.30;3.90;;;9.00;99.90;;;;;;4879173;29;20217;-76
2022/04/26 16:21:06;;;;;;;5.53;4.53;;;9.00;99.90;;;;;;4880127;29;20242;-78
2022/04/26 16:23:35;;;;;;;4.37;3.80;;;9.00;99.90;;;;;;4881376;29;20218;-77
2022/04/26 16:26:06;;;;;;;4.87;4.10;;;8.90;99.90;;;;;;4894787;29;20224;-73
2022/04/26 16:28:36;;;;;;;5.83;3.93;;;8.90;99.90;;;;;;4904602;29;20205;-75
2022/04/26 16:31:04;;;;;;;5.03;3.90;;;9.00;99.90;;;;;;4900001;29;20213;-76
2022/04/26 16:33:32;;;;;;;5.40;4.23;;;9.00;99.90;;;;;;4901236;29;20224;-73
2022/04/26 16:36:01;;;;;;;6.23;4.03;;;8.90;99.90;;;;;;4881526;29;20681;-76
2022/04/26 16:38:29;;;;;;;7.23;4.33;;;8.90;99.90;;;;;;4879641;29;20744;-76
2022/04/26 16:40:57;;;;;;;4.67;4.13;;;8.90;99.90;;;;;;4879629;29;20329;-76
2022/04/26 16:43:28;;;;;;;7.77;4.67;;;9.00;99.90;;;;;;4880162;29;20233;-76
2022/04/26 16:45:56;;;;;;;4.90;4.20;;;9.10;99.90;;;;;;4880888;29;20238;-75
2022/04/26 16:48:25;;;;;;;6.37;4.40;;;9.10;99.90;;;;;;4881041;29;20214;-75
2022/04/26 16:50:53;;;;;;;4.40;3.87;;;9.40;99.90;;;;;;4882349;29;20292;-73
2022/04/26 16:53:21;;;;;;;5.53;4.20;;;9.40;99.90;;;;;;4881337;29;20637;-77
2022/04/26 16:55:49;;;;;;;4.93;4.43;;;9.50;99.90;;;;;;4880963;29;20214;-76
2022/04/26 16:58:18;;;;;;;5.07;4.20;;;9.60;99.90;;;;;;4881224;29;20301;-75
2022/04/26 17:00:48;;;;;;;6.30;4.53;;;9.70;99.90;;;;;;4881010;29;20238;-76
2022/04/26 17:03:16;;;;;;;4.27;3.83;;;9.80;99.90;;;;;;4880500;29;20317;-77
2022/04/26 17:05:45;;;;;;;5.50;4.40;;;9.90;99.90;;;;;;4881106;29;20210;-77
2022/04/26 17:08:14;;;;;;;4.73;4.33;;;10.00;99.90;;;;;;4880867;29;20329;-77
2022/04/26 17:10:43;;;;;;;5.37;4.47;;;10.20;99.90;;;;;;4881056;29;20210;-74
2022/04/26 17:13:12;;;;;;;4.63;3.50;;;10.20;99.90;;;;;;4881220;29;20636;-77
2022/04/26 17:15:40;;;;;;;4.13;3.30;;;10.30;99.90;;;;;;4881887;29;20309;-76
2022/04/26 17:18:11;;;;;;;3.60;3.23;;;10.30;99.90;;;;;;4881460;29;20240;-78
2022/04/26 17:20:39;;;;;;;3.90;3.00;;;10.30;99.90;;;;;;4881323;29;20234;-76
2022/04/26 17:23:07;;;;;;;3.63;3.33;;;10.30;99.90;;;;;;4880587;29;20296;-79
2022/04/26 17:25:37;;;;;;;3.83;3.10;;;10.30;99.90;;;;;;4882544;29;20711;-77
2022/04/26 17:28:11;;;;;;;3.23;2.93;;;10.30;99.90;;;;;;4885582;29;20258;-76
2022/04/26 17:30:40;;;;;;;3.97;3.57;;;10.20;99.90;;;;;;4884142;29;20225;-78
2022/04/26 17:33:10;;;;;;;5.83;4.53;;;10.10;99.90;;;;;;4884094;29;20708;-77
2022/04/26 17:35:38;;;;;;;3.40;3.10;;;10.00;99.90;;;;;;4884748;29;20637;-78
2022/04/26 17:38:06;;;;;;;3.17;2.80;;;10.00;99.90;;;;;;4882073;29;20218;-79
2022/04/26 17:40:35;;;;;;;5.17;3.33;;;9.90;99.90;;;;;;4880623;29;20266;-79
2022/04/26 17:43:05;;;;;;;5.23;3.33;;;9.80;99.90;;;;;;4882458;29;20223;-78
2022/04/26 17:45:35;;;;;;;4.60;3.63;;;9.60;99.90;;;;;;4883451;29;20560;-79
2022/04/26 17:48:04;;;;;;;6.47;4.03;;;9.50;99.90;;;;;;4883624;29;20582;-75
2022/04/26 17:50:33;;;;;;;5.87;4.03;;;9.30;99.90;;;;;;4882169;29;20243;-76
2022/04/26 17:58:33;;;;;;;7.57;3.83;;;9.00;99.90;;;;;;4876294;29;20233;-78